sensor_id;sensor_type;location;lat;lon;timestamp;P1;durP1;ratioP1;P2;durP2;ratioP2
5710;SDS011;61291;52.524;13.422;2022-12-18T00:01:29;93.33;;;76.53;;
5710;SDS011;61291;52.524;13.422;2022-12-18T00:04:00;103.23;;;76.20;;
5710;SDS011;61291;52.524;13.422;2022-12-18T00:06:28;95.70;;;77.60;;
5710;SDS011;61291;52.524;13.422;2022-12-18T00:08:54;97.87;;;73.13;;
5710;SDS011;61291;52.524;13.422;2022-12-18T00:11:22;95.70;;;72.87;;
5710;SDS011;61291;52.524;13.422;2022-12-18T00:13:49;106.33;;;80.00;;
5710;SDS011;61291;52.524;13.422;2022-12-18T00:16:16;87.07;;;70.83;;
5710;SDS011;61291;52.524;13.422;2022-12-18T00:18:45;98.45;;;67.60;;
5710;SDS011;61291;52.524;13.422;2022-12-18T00:21:11;94.00;;;79.80;;
5710;SDS011;61291;52.524;13.422;2022-12-18T00:23:38;95.23;;;78.10;;
5710;SDS011;61291;52.524;13.422;2022-12-18T00:26:05;101.03;;;75.27;;
5710;SDS011;61291;52.524;13.422;2022-12-18T00:28:33;91.53;;;74.00;;
5710;SDS011;61291;52.524;13.422;2022-12-18T00:31:06;87.40;;;73.03;;
5710;SDS011;61291;52.524;13.422;2022-12-18T00:33:34;89.23;;;72.17;;
5710;SDS011;61291;52.524;13.422;2022-12-18T00:36:04;95.33;;;76.77;;
5710;SDS011;61291;52.524;13.422;2022-12-18T00:38:31;103.23;;;76.27;;
5710;SDS011;61291;52.524;13.422;2022-12-18T00:40:57;96.83;;;75.33;;
5710;SDS011;61291;52.524;13.422;2022-12-18T00:43:22;85.40;;;74.20;;
5710;SDS011;61291;52.524;13.422;2022-12-18T00:45:48;89.50;;;74.10;;
5710;SDS011;61291;52.524;13.422;2022-12-18T00:48:13;81.50;;;73.10;;
5710;SDS011;61291;52.524;13.422;2022-12-18T00:50:39;86.83;;;70.60;;
5710;SDS011;61291;52.524;13.422;2022-12-18T00:53:04;82.53;;;72.87;;
5710;SDS011;61291;52.524;13.422;2022-12-18T00:55:30;78.33;;;67.67;;
5710;SDS011;61291;52.524;13.422;2022-12-18T00:57:56;82.10;;;73.70;;
5710;SDS011;61291;52.524;13.422;2022-12-18T01:00:22;89.73;;;71.70;;
5710;SDS011;61291;52.524;13.422;2022-12-18T01:02:47;87.80;;;70.03;;
5710;SDS011;61291;52.524;13.422;2022-12-18T01:05:13;81.90;;;68.87;;
5710;SDS011;61291;52.524;13.422;2022-12-18T01:07:39;80.00;;;71.20;;
5710;SDS011;61291;52.524;13.422;2022-12-18T01:10:05;84.60;;;65.10;;
5710;SDS011;61291;52.524;13.422;2022-12-18T01:12:32;86.57;;;73.93;;
5710;SDS011;61291;52.524;13.422;2022-12-18T01:14:58;97.20;;;73.53;;
5710;SDS011;61291;52.524;13.422;2022-12-18T01:17:23;90.60;;;74.93;;
5710;SDS011;61291;52.524;13.422;2022-12-18T01:19:49;89.93;;;72.93;;
5710;SDS011;61291;52.524;13.422;2022-12-18T01:22:15;90.10;;;73.30;;
5710;SDS011;61291;52.524;13.422;2022-12-18T01:24:40;83.27;;;72.47;;
5710;SDS011;61291;52.524;13.422;2022-12-18T01:27:06;89.07;;;75.20;;
5710;SDS011;61291;52.524;13.422;2022-12-18T01:29:31;81.53;;;72.57;;
5710;SDS011;61291;52.524;13.422;2022-12-18T01:31:57;80.40;;;71.40;;
5710;SDS011;61291;52.524;13.422;2022-12-18T01:34:23;84.33;;;75.00;;
5710;SDS011;61291;52.524;13.422;2022-12-18T01:36:49;79.77;;;71.33;;
5710;SDS011;61291;52.524;13.422;2022-12-18T01:39:17;77.67;;;62.13;;
5710;SDS011;61291;52.524;13.422;2022-12-18T01:41:43;80.30;;;71.50;;
5710;SDS011;61291;52.524;13.422;2022-12-18T01:50:18;94.07;;;76.00;;
5710;SDS011;61291;52.524;13.422;2022-12-18T01:53:05;84.40;;;75.47;;
5710;SDS011;61291;52.524;13.422;2022-12-18T01:55:47;93.63;;;74.50;;
5710;SDS011;61291;52.524;13.422;2022-12-18T01:58:16;89.27;;;74.30;;
5710;SDS011;61291;52.524;13.422;2022-12-18T02:00:43;75.20;;;67.10;;
5710;SDS011;61291;52.524;13.422;2022-12-18T02:03:08;79.20;;;71.37;;
5710;SDS011;61291;52.524;13.422;2022-12-18T02:05:41;84.90;;;74.60;;
5710;SDS011;61291;52.524;13.422;2022-12-18T02:10:43;99.83;;;80.63;;
5710;SDS011;61291;52.524;13.422;2022-12-18T02:18:32;96.97;;;79.50;;
5710;SDS011;61291;52.524;13.422;2022-12-18T02:24:11;107.10;;;78.03;;
5710;SDS011;61291;52.524;13.422;2022-12-18T02:26:55;103.93;;;76.00;;
5710;SDS011;61291;52.524;13.422;2022-12-18T02:29:26;124.63;;;82.87;;
5710;SDS011;61291;52.524;13.422;2022-12-18T02:31:59;128.03;;;84.27;;
5710;SDS011;61291;52.524;13.422;2022-12-18T02:34:29;105.83;;;77.40;;
5710;SDS011;61291;52.524;13.422;2022-12-18T02:36:58;111.53;;;81.40;;
5710;SDS011;61291;52.524;13.422;2022-12-18T02:39:27;119.73;;;87.33;;
5710;SDS011;61291;52.524;13.422;2022-12-18T02:41:55;117.37;;;80.60;;
5710;SDS011;61291;52.524;13.422;2022-12-18T02:44:22;112.40;;;87.43;;
5710;SDS011;61291;52.524;13.422;2022-12-18T02:46:51;119.50;;;82.43;;
5710;SDS011;61291;52.524;13.422;2022-12-18T02:49:26;109.07;;;86.57;;
5710;SDS011;61291;52.524;13.422;2022-12-18T02:52:30;114.03;;;83.90;;
5710;SDS011;61291;52.524;13.422;2022-12-18T02:55:13;117.27;;;80.30;;
5710;SDS011;61291;52.524;13.422;2022-12-18T02:58:10;129.00;;;85.27;;
5710;SDS011;61291;52.524;13.422;2022-12-18T03:00:46;123.97;;;86.63;;
5710;SDS011;61291;52.524;13.422;2022-12-18T03:03:24;134.90;;;82.20;;
5710;SDS011;61291;52.524;13.422;2022-12-18T03:06:04;131.93;;;88.50;;
5710;SDS011;61291;52.524;13.422;2022-12-18T03:08:39;143.47;;;88.43;;
5710;SDS011;61291;52.524;13.422;2022-12-18T03:11:09;135.20;;;84.17;;
5710;SDS011;61291;52.524;13.422;2022-12-18T03:13:50;140.40;;;93.13;;
5710;SDS011;61291;52.524;13.422;2022-12-18T03:16:22;119.57;;;84.37;;
5710;SDS011;61291;52.524;13.422;2022-12-18T03:18:52;122.07;;;86.97;;
5710;SDS011;61291;52.524;13.422;2022-12-18T03:21:25;140.40;;;88.43;;
5710;SDS011;61291;52.524;13.422;2022-12-18T03:23:54;113.33;;;76.80;;
5710;SDS011;61291;52.524;13.422;2022-12-18T03:26:21;144.80;;;86.40;;
5710;SDS011;61291;52.524;13.422;2022-12-18T03:28:51;116.10;;;82.63;;
5710;SDS011;61291;52.524;13.422;2022-12-18T03:31:24;132.03;;;86.13;;
5710;SDS011;61291;52.524;13.422;2022-12-18T03:33:54;124.97;;;76.85;;
5710;SDS011;61291;52.524;13.422;2022-12-18T03:36:20;121.73;;;86.17;;
5710;SDS011;61291;52.524;13.422;2022-12-18T03:38:47;109.23;;;77.70;;
5710;SDS011;61291;52.524;13.422;2022-12-18T03:44:10;128.53;;;83.50;;
5710;SDS011;61291;52.524;13.422;2022-12-18T03:46:41;116.97;;;81.80;;
5710;SDS011;61291;52.524;13.422;2022-12-18T03:49:09;115.77;;;80.60;;
5710;SDS011;61291;52.524;13.422;2022-12-18T03:51:41;103.07;;;79.50;;
5710;SDS011;61291;52.524;13.422;2022-12-18T03:54:14;104.37;;;80.13;;
5710;SDS011;61291;52.524;13.422;2022-12-18T03:56:46;97.80;;;79.10;;
5710;SDS011;61291;52.524;13.422;2022-12-18T03:59:15;119.63;;;84.03;;
5710;SDS011;61291;52.524;13.422;2022-12-18T04:01:46;105.80;;;79.90;;
5710;SDS011;61291;52.524;13.422;2022-12-18T04:04:14;103.87;;;79.93;;
5710;SDS011;61291;52.524;13.422;2022-12-18T04:06:43;93.57;;;74.53;;
5710;SDS011;61291;52.524;13.422;2022-12-18T04:09:10;109.13;;;77.53;;
5710;SDS011;61291;52.524;13.422;2022-12-18T04:11:35;101.90;;;76.93;;
5710;SDS011;61291;52.524;13.422;2022-12-18T04:14:01;88.37;;;79.07;;
5710;SDS011;61291;52.524;13.422;2022-12-18T04:16:26;93.63;;;80.60;;
5710;SDS011;61291;52.524;13.422;2022-12-18T04:18:52;88.10;;;74.43;;
5710;SDS011;61291;52.524;13.422;2022-12-18T04:21:18;103.37;;;80.37;;
5710;SDS011;61291;52.524;13.422;2022-12-18T04:23:44;90.73;;;79.70;;
5710;SDS011;61291;52.524;13.422;2022-12-18T04:26:09;90.83;;;75.73;;
5710;SDS011;61291;52.524;13.422;2022-12-18T04:28:35;90.87;;;76.97;;
5710;SDS011;61291;52.524;13.422;2022-12-18T04:31:01;97.23;;;81.43;;
5710;SDS011;61291;52.524;13.422;2022-12-18T04:33:27;94.70;;;77.67;;
5710;SDS011;61291;52.524;13.422;2022-12-18T04:35:52;81.47;;;71.83;;
5710;SDS011;61291;52.524;13.422;2022-12-18T04:38:18;87.10;;;72.77;;
5710;SDS011;61291;52.524;13.422;2022-12-18T04:40:43;96.03;;;77.10;;
5710;SDS011;61291;52.524;13.422;2022-12-18T04:43:09;86.07;;;76.17;;
5710;SDS011;61291;52.524;13.422;2022-12-18T04:45:34;92.47;;;79.70;;
5710;SDS011;61291;52.524;13.422;2022-12-18T04:48:01;94.70;;;77.23;;
5710;SDS011;61291;52.524;13.422;2022-12-18T04:50:27;90.43;;;73.70;;
5710;SDS011;61291;52.524;13.422;2022-12-18T04:52:53;103.30;;;69.10;;
5710;SDS011;61291;52.524;13.422;2022-12-18T04:55:18;98.43;;;78.23;;
5710;SDS011;61291;52.524;13.422;2022-12-18T04:57:44;93.73;;;76.77;;
5710;SDS011;61291;52.524;13.422;2022-12-18T05:00:10;97.00;;;76.87;;
5710;SDS011;61291;52.524;13.422;2022-12-18T05:02:36;97.53;;;74.77;;
5710;SDS011;61291;52.524;13.422;2022-12-18T05:05:01;73.93;;;66.23;;
5710;SDS011;61291;52.524;13.422;2022-12-18T05:07:27;96.77;;;76.90;;
5710;SDS011;61291;52.524;13.422;2022-12-18T05:09:53;88.00;;;79.20;;
5710;SDS011;61291;52.524;13.422;2022-12-18T05:12:18;89.07;;;72.87;;
5710;SDS011;61291;52.524;13.422;2022-12-18T05:14:44;80.33;;;71.57;;
5710;SDS011;61291;52.524;13.422;2022-12-18T05:17:09;87.13;;;72.93;;
5710;SDS011;61291;52.524;13.422;2022-12-18T05:19:37;106.20;;;78.07;;
5710;SDS011;61291;52.524;13.422;2022-12-18T05:22:03;79.00;;;69.30;;
5710;SDS011;61291;52.524;13.422;2022-12-18T05:24:28;82.80;;;71.97;;
5710;SDS011;61291;52.524;13.422;2022-12-18T05:26:54;88.00;;;73.63;;
5710;SDS011;61291;52.524;13.422;2022-12-18T05:29:19;88.77;;;74.60;;
5710;SDS011;61291;52.524;13.422;2022-12-18T05:31:45;86.95;;;73.60;;
5710;SDS011;61291;52.524;13.422;2022-12-18T05:34:10;84.10;;;72.27;;
5710;SDS011;61291;52.524;13.422;2022-12-18T05:36:36;88.30;;;71.93;;
5710;SDS011;61291;52.524;13.422;2022-12-18T05:39:02;84.43;;;70.07;;
5710;SDS011;61291;52.524;13.422;2022-12-18T05:41:27;102.10;;;74.27;;
5710;SDS011;61291;52.524;13.422;2022-12-18T05:43:54;86.50;;;72.97;;
5710;SDS011;61291;52.524;13.422;2022-12-18T05:46:19;114.80;;;76.87;;
5710;SDS011;61291;52.524;13.422;2022-12-18T05:48:45;99.07;;;75.33;;
5710;SDS011;61291;52.524;13.422;2022-12-18T05:51:12;97.63;;;72.97;;
5710;SDS011;61291;52.524;13.422;2022-12-18T05:53:39;100.23;;;76.63;;
5710;SDS011;61291;52.524;13.422;2022-12-18T05:56:06;107.87;;;76.83;;
5710;SDS011;61291;52.524;13.422;2022-12-18T05:58:34;102.57;;;73.90;;
5710;SDS011;61291;52.524;13.422;2022-12-18T06:01:19;99.83;;;72.70;;
5710;SDS011;61291;52.524;13.422;2022-12-18T06:03:46;97.57;;;75.30;;
5710;SDS011;61291;52.524;13.422;2022-12-18T06:06:19;105.30;;;75.27;;
5710;SDS011;61291;52.524;13.422;2022-12-18T06:08:47;93.27;;;75.13;;
5710;SDS011;61291;52.524;13.422;2022-12-18T06:11:13;115.17;;;77.70;;
5710;SDS011;61291;52.524;13.422;2022-12-18T06:13:41;96.13;;;74.53;;
5710;SDS011;61291;52.524;13.422;2022-12-18T06:16:07;110.20;;;77.17;;
5710;SDS011;61291;52.524;13.422;2022-12-18T06:18:33;112.10;;;78.80;;
5710;SDS011;61291;52.524;13.422;2022-12-18T06:20:59;116.87;;;79.03;;
5710;SDS011;61291;52.524;13.422;2022-12-18T06:23:24;111.30;;;78.23;;
5710;SDS011;61291;52.524;13.422;2022-12-18T06:25:50;90.17;;;75.47;;
5710;SDS011;61291;52.524;13.422;2022-12-18T06:28:16;101.23;;;77.53;;
5710;SDS011;61291;52.524;13.422;2022-12-18T06:30:45;103.07;;;77.43;;
5710;SDS011;61291;52.524;13.422;2022-12-18T06:33:11;108.70;;;81.73;;
5710;SDS011;61291;52.524;13.422;2022-12-18T06:35:37;112.17;;;79.47;;
5710;SDS011;61291;52.524;13.422;2022-12-18T06:38:03;99.17;;;76.70;;
5710;SDS011;61291;52.524;13.422;2022-12-18T06:40:28;111.90;;;76.07;;
5710;SDS011;61291;52.524;13.422;2022-12-18T06:42:54;105.13;;;76.93;;
5710;SDS011;61291;52.524;13.422;2022-12-18T06:45:19;98.63;;;77.30;;
5710;SDS011;61291;52.524;13.422;2022-12-18T06:47:45;95.87;;;72.30;;
5710;SDS011;61291;52.524;13.422;2022-12-18T06:50:11;109.57;;;81.03;;
5710;SDS011;61291;52.524;13.422;2022-12-18T06:52:37;109.57;;;77.97;;
5710;SDS011;61291;52.524;13.422;2022-12-18T06:55:04;114.90;;;84.07;;
5710;SDS011;61291;52.524;13.422;2022-12-18T06:57:30;124.67;;;81.50;;
5710;SDS011;61291;52.524;13.422;2022-12-18T06:59:55;103.03;;;79.67;;
5710;SDS011;61291;52.524;13.422;2022-12-18T07:02:21;105.03;;;77.20;;
5710;SDS011;61291;52.524;13.422;2022-12-18T07:04:46;101.03;;;68.47;;
5710;SDS011;61291;52.524;13.422;2022-12-18T07:07:14;108.83;;;79.37;;
5710;SDS011;61291;52.524;13.422;2022-12-18T07:09:40;107.57;;;76.27;;
5710;SDS011;61291;52.524;13.422;2022-12-18T07:12:05;101.20;;;74.03;;
5710;SDS011;61291;52.524;13.422;2022-12-18T07:14:31;101.03;;;72.97;;
5710;SDS011;61291;52.524;13.422;2022-12-18T07:16:57;100.37;;;74.17;;
5710;SDS011;61291;52.524;13.422;2022-12-18T07:19:22;106.77;;;76.77;;
5710;SDS011;61291;52.524;13.422;2022-12-18T07:21:49;102.53;;;74.80;;
5710;SDS011;61291;52.524;13.422;2022-12-18T07:24:15;110.53;;;75.70;;
5710;SDS011;61291;52.524;13.422;2022-12-18T07:26:40;91.10;;;70.50;;
5710;SDS011;61291;52.524;13.422;2022-12-18T07:29:06;100.70;;;71.90;;
5710;SDS011;61291;52.524;13.422;2022-12-18T07:31:31;100.00;;;73.60;;
5710;SDS011;61291;52.524;13.422;2022-12-18T07:33:57;105.83;;;73.70;;
5710;SDS011;61291;52.524;13.422;2022-12-18T07:36:22;112.45;;;67.47;;
5710;SDS011;61291;52.524;13.422;2022-12-18T07:38:48;96.23;;;76.33;;
5710;SDS011;61291;52.524;13.422;2022-12-18T07:41:14;82.30;;;67.23;;
5710;SDS011;61291;52.524;13.422;2022-12-18T07:43:40;92.93;;;74.30;;
5710;SDS011;61291;52.524;13.422;2022-12-18T07:46:06;105.47;;;72.93;;
5710;SDS011;61291;52.524;13.422;2022-12-18T07:48:33;100.77;;;72.50;;
5710;SDS011;61291;52.524;13.422;2022-12-18T07:50:59;103.30;;;73.70;;
5710;SDS011;61291;52.524;13.422;2022-12-18T07:53:25;105.23;;;76.17;;
5710;SDS011;61291;52.524;13.422;2022-12-18T07:55:55;108.53;;;77.63;;
5710;SDS011;61291;52.524;13.422;2022-12-18T07:58:24;112.27;;;80.57;;
5710;SDS011;61291;52.524;13.422;2022-12-18T08:00:50;98.57;;;77.60;;
5710;SDS011;61291;52.524;13.422;2022-12-18T08:03:15;112.10;;;77.13;;
5710;SDS011;61291;52.524;13.422;2022-12-18T08:05:41;104.40;;;78.60;;
5710;SDS011;61291;52.524;13.422;2022-12-18T08:08:06;91.37;;;76.23;;
5710;SDS011;61291;52.524;13.422;2022-12-18T08:10:32;94.70;;;76.87;;
5710;SDS011;61291;52.524;13.422;2022-12-18T08:12:57;74.20;;;65.70;;
5710;SDS011;61291;52.524;13.422;2022-12-18T08:15:23;92.88;;;67.60;;
5710;SDS011;61291;52.524;13.422;2022-12-18T08:17:48;100.37;;;76.30;;
5710;SDS011;61291;52.524;13.422;2022-12-18T08:20:14;93.37;;;75.20;;
5710;SDS011;61291;52.524;13.422;2022-12-18T08:22:40;98.57;;;72.27;;
5710;SDS011;61291;52.524;13.422;2022-12-18T08:25:06;88.33;;;73.20;;
5710;SDS011;61291;52.524;13.422;2022-12-18T08:27:32;78.90;;;68.20;;
5710;SDS011;61291;52.524;13.422;2022-12-18T08:29:58;76.03;;;67.33;;
5710;SDS011;61291;52.524;13.422;2022-12-18T08:32:24;94.73;;;72.57;;
5710;SDS011;61291;52.524;13.422;2022-12-18T08:34:51;89.10;;;77.43;;
5710;SDS011;61291;52.524;13.422;2022-12-18T08:37:16;90.67;;;76.67;;
5710;SDS011;61291;52.524;13.422;2022-12-18T08:39:42;93.10;;;76.87;;
5710;SDS011;61291;52.524;13.422;2022-12-18T08:42:07;84.63;;;74.37;;
5710;SDS011;61291;52.524;13.422;2022-12-18T08:44:51;84.60;;;75.43;;
5710;SDS011;61291;52.524;13.422;2022-12-18T08:47:16;96.50;;;78.13;;
5710;SDS011;61291;52.524;13.422;2022-12-18T08:49:42;85.55;;;70.72;;
5710;SDS011;61291;52.524;13.422;2022-12-18T08:52:07;92.03;;;76.83;;
5710;SDS011;61291;52.524;13.422;2022-12-18T08:54:33;81.37;;;71.13;;
5710;SDS011;61291;52.524;13.422;2022-12-18T08:56:59;84.50;;;75.60;;
5710;SDS011;61291;52.524;13.422;2022-12-18T08:59:24;77.17;;;69.00;;
5710;SDS011;61291;52.524;13.422;2022-12-18T09:01:50;84.20;;;75.00;;
5710;SDS011;61291;52.524;13.422;2022-12-18T09:04:18;79.27;;;70.97;;
5710;SDS011;61291;52.524;13.422;2022-12-18T09:06:44;81.20;;;70.57;;
5710;SDS011;61291;52.524;13.422;2022-12-18T09:09:09;76.27;;;68.07;;
5710;SDS011;61291;52.524;13.422;2022-12-18T09:11:36;79.67;;;68.70;;
5710;SDS011;61291;52.524;13.422;2022-12-18T09:14:01;89.17;;;76.63;;
5710;SDS011;61291;52.524;13.422;2022-12-18T09:16:27;88.10;;;78.90;;
5710;SDS011;61291;52.524;13.422;2022-12-18T09:18:56;83.50;;;74.43;;
5710;SDS011;61291;52.524;13.422;2022-12-18T09:21:29;84.10;;;75.40;;
5710;SDS011;61291;52.524;13.422;2022-12-18T09:23:59;77.43;;;69.50;;
5710;SDS011;61291;52.524;13.422;2022-12-18T09:26:25;87.25;;;68.85;;
5710;SDS011;61291;52.524;13.422;2022-12-18T09:28:51;89.20;;;78.50;;
5710;SDS011;61291;52.524;13.422;2022-12-18T09:31:18;83.57;;;72.57;;
5710;SDS011;61291;52.524;13.422;2022-12-18T09:33:45;81.60;;;72.73;;
5710;SDS011;61291;52.524;13.422;2022-12-18T09:36:11;88.90;;;76.33;;
5710;SDS011;61291;52.524;13.422;2022-12-18T09:38:39;84.82;;;75.15;;
5710;SDS011;61291;52.524;13.422;2022-12-18T09:41:05;86.97;;;77.77;;
5710;SDS011;61291;52.524;13.422;2022-12-18T09:43:51;78.77;;;70.87;;
5710;SDS011;61291;52.524;13.422;2022-12-18T09:46:26;84.93;;;75.70;;
5710;SDS011;61291;52.524;13.422;2022-12-18T09:48:59;86.37;;;77.23;;
5710;SDS011;61291;52.524;13.422;2022-12-18T09:51:32;85.80;;;71.43;;
5710;SDS011;61291;52.524;13.422;2022-12-18T09:54:03;75.60;;;67.87;;
5710;SDS011;61291;52.524;13.422;2022-12-18T09:56:35;86.63;;;74.60;;
5710;SDS011;61291;52.524;13.422;2022-12-18T09:59:05;80.37;;;67.03;;
5710;SDS011;61291;52.524;13.422;2022-12-18T10:01:31;81.47;;;72.53;;
5710;SDS011;61291;52.524;13.422;2022-12-18T10:03:57;84.70;;;70.20;;
5710;SDS011;61291;52.524;13.422;2022-12-18T10:09:17;84.70;;;75.40;;
5710;SDS011;61291;52.524;13.422;2022-12-18T10:11:53;83.40;;;69.27;;
5710;SDS011;61291;52.524;13.422;2022-12-18T10:22:49;83.47;;;71.03;;
5710;SDS011;61291;52.524;13.422;2022-12-18T10:28:00;78.47;;;69.33;;
5710;SDS011;61291;52.524;13.422;2022-12-18T10:30:37;79.00;;;70.50;;
5710;SDS011;61291;52.524;13.422;2022-12-18T10:33:04;77.63;;;69.07;;
5710;SDS011;61291;52.524;13.422;2022-12-18T10:35:29;76.30;;;68.47;;
5710;SDS011;61291;52.524;13.422;2022-12-18T10:38:02;85.37;;;76.30;;
5710;SDS011;61291;52.524;13.422;2022-12-18T10:40:59;84.13;;;75.03;;
5710;SDS011;61291;52.524;13.422;2022-12-18T10:43:27;91.13;;;71.67;;
5710;SDS011;61291;52.524;13.422;2022-12-18T10:51:16;87.07;;;68.60;;
5710;SDS011;61291;52.524;13.422;2022-12-18T10:56:31;86.23;;;76.47;;
5710;SDS011;61291;52.524;13.422;2022-12-18T10:59:01;82.57;;;72.77;;
5710;SDS011;61291;52.524;13.422;2022-12-18T11:01:30;83.30;;;72.00;;
5710;SDS011;61291;52.524;13.422;2022-12-18T11:04:26;80.67;;;71.90;;
5710;SDS011;61291;52.524;13.422;2022-12-18T11:07:07;90.33;;;78.57;;
5710;SDS011;61291;52.524;13.422;2022-12-18T11:09:37;92.67;;;77.07;;
5710;SDS011;61291;52.524;13.422;2022-12-18T11:12:04;84.27;;;74.70;;
5710;SDS011;61291;52.524;13.422;2022-12-18T11:14:42;84.20;;;75.10;;
5710;SDS011;61291;52.524;13.422;2022-12-18T11:20:01;88.73;;;78.70;;
5710;SDS011;61291;52.524;13.422;2022-12-18T11:22:30;80.80;;;72.30;;
5710;SDS011;61291;52.524;13.422;2022-12-18T11:24:58;96.43;;;76.30;;
5710;SDS011;61291;52.524;13.422;2022-12-18T11:27:26;84.77;;;74.33;;
5710;SDS011;61291;52.524;13.422;2022-12-18T11:30:06;85.27;;;73.20;;
5710;SDS011;61291;52.524;13.422;2022-12-18T11:32:47;80.20;;;71.63;;
5710;SDS011;61291;52.524;13.422;2022-12-18T11:37:48;74.63;;;66.70;;
5710;SDS011;61291;52.524;13.422;2022-12-18T11:40:25;73.80;;;66.37;;
5710;SDS011;61291;52.524;13.422;2022-12-18T11:43:15;79.07;;;70.67;;
5710;SDS011;61291;52.524;13.422;2022-12-18T11:45:51;77.17;;;69.77;;
5710;SDS011;61291;52.524;13.422;2022-12-18T11:48:24;83.63;;;74.83;;
5710;SDS011;61291;52.524;13.422;2022-12-18T11:50:56;81.97;;;73.67;;
5710;SDS011;61291;52.524;13.422;2022-12-18T11:53:24;78.83;;;70.60;;
5710;SDS011;61291;52.524;13.422;2022-12-18T11:55:59;97.40;;;77.23;;
5710;SDS011;61291;52.524;13.422;2022-12-18T11:58:50;80.27;;;71.87;;
5710;SDS011;61291;52.524;13.422;2022-12-18T12:01:26;79.78;;;65.95;;
5710;SDS011;61291;52.524;13.422;2022-12-18T12:04:02;77.90;;;69.63;;
5710;SDS011;61291;52.524;13.422;2022-12-18T12:06:38;79.50;;;71.40;;
5710;SDS011;61291;52.524;13.422;2022-12-18T12:09:37;82.23;;;73.23;;
5710;SDS011;61291;52.524;13.422;2022-12-18T12:12:27;76.80;;;68.73;;
5710;SDS011;61291;52.524;13.422;2022-12-18T12:18:08;75.67;;;68.07;;
5710;SDS011;61291;52.524;13.422;2022-12-18T12:21:07;69.90;;;62.90;;
5710;SDS011;61291;52.524;13.422;2022-12-18T12:26:38;77.83;;;69.70;;
5710;SDS011;61291;52.524;13.422;2022-12-18T12:32:12;76.60;;;68.50;;
5710;SDS011;61291;52.524;13.422;2022-12-18T12:35:22;73.90;;;65.70;;
5710;SDS011;61291;52.524;13.422;2022-12-18T12:38:18;71.60;;;60.97;;
5710;SDS011;61291;52.524;13.422;2022-12-18T12:40:49;75.13;;;66.77;;
5710;SDS011;61291;52.524;13.422;2022-12-18T12:43:40;74.40;;;65.47;;
5710;SDS011;61291;52.524;13.422;2022-12-18T12:46:09;79.20;;;70.80;;
5710;SDS011;61291;52.524;13.422;2022-12-18T12:48:52;76.13;;;68.00;;
5710;SDS011;61291;52.524;13.422;2022-12-18T12:51:28;76.73;;;67.23;;
5710;SDS011;61291;52.524;13.422;2022-12-18T12:53:58;79.80;;;67.90;;
5710;SDS011;61291;52.524;13.422;2022-12-18T12:56:36;74.03;;;66.33;;
5710;SDS011;61291;52.524;13.422;2022-12-18T12:59:13;77.47;;;69.87;;
5710;SDS011;61291;52.524;13.422;2022-12-18T13:04:47;75.33;;;67.77;;
5710;SDS011;61291;52.524;13.422;2022-12-18T13:07:26;76.40;;;68.40;;
5710;SDS011;61291;52.524;13.422;2022-12-18T13:15:21;75.30;;;67.50;;
5710;SDS011;61291;52.524;13.422;2022-12-18T13:18:02;79.13;;;71.10;;
5710;SDS011;61291;52.524;13.422;2022-12-18T13:20:35;70.77;;;63.07;;
5710;SDS011;61291;52.524;13.422;2022-12-18T13:25:47;76.07;;;69.00;;
5710;SDS011;61291;52.524;13.422;2022-12-18T13:28:14;69.57;;;62.47;;
5710;SDS011;61291;52.524;13.422;2022-12-18T13:31:00;77.73;;;69.80;;
5710;SDS011;61291;52.524;13.422;2022-12-18T13:36:02;82.47;;;73.97;;
5710;SDS011;61291;52.524;13.422;2022-12-18T13:38:38;79.00;;;67.13;;
5710;SDS011;61291;52.524;13.422;2022-12-18T13:41:23;79.23;;;71.03;;
5710;SDS011;61291;52.524;13.422;2022-12-18T13:43:54;66.27;;;59.37;;
5710;SDS011;61291;52.524;13.422;2022-12-18T13:46:25;82.70;;;67.27;;
5710;SDS011;61291;52.524;13.422;2022-12-18T13:49:05;70.20;;;62.80;;
5710;SDS011;61291;52.524;13.422;2022-12-18T13:51:49;76.60;;;65.97;;
5710;SDS011;61291;52.524;13.422;2022-12-18T13:54:22;73.03;;;65.03;;
5710;SDS011;61291;52.524;13.422;2022-12-18T13:57:00;70.03;;;62.97;;
5710;SDS011;61291;52.524;13.422;2022-12-18T13:59:35;70.10;;;62.90;;
5710;SDS011;61291;52.524;13.422;2022-12-18T14:02:15;68.47;;;61.30;;
5710;SDS011;61291;52.524;13.422;2022-12-18T14:04:45;71.90;;;65.50;;
5710;SDS011;61291;52.524;13.422;2022-12-18T14:07:16;74.90;;;66.90;;
5710;SDS011;61291;52.524;13.422;2022-12-18T14:09:57;69.70;;;62.20;;
5710;SDS011;61291;52.524;13.422;2022-12-18T14:12:25;69.13;;;60.92;;
5710;SDS011;61291;52.524;13.422;2022-12-18T14:17:52;75.10;;;67.33;;
5710;SDS011;61291;52.524;13.422;2022-12-18T14:20:26;67.40;;;59.53;;
5710;SDS011;61291;52.524;13.422;2022-12-18T14:22:54;82.53;;;70.97;;
5710;SDS011;61291;52.524;13.422;2022-12-18T14:25:22;76.17;;;68.13;;
5710;SDS011;61291;52.524;13.422;2022-12-18T14:27:52;77.60;;;67.20;;
5710;SDS011;61291;52.524;13.422;2022-12-18T14:30:37;79.03;;;70.07;;
5710;SDS011;61291;52.524;13.422;2022-12-18T14:35:30;80.80;;;72.40;;
5710;SDS011;61291;52.524;13.422;2022-12-18T14:38:10;75.50;;;68.23;;
5710;SDS011;61291;52.524;13.422;2022-12-18T14:40:44;75.97;;;67.83;;
5710;SDS011;61291;52.524;13.422;2022-12-18T14:43:10;76.33;;;67.93;;
5710;SDS011;61291;52.524;13.422;2022-12-18T14:45:36;77.82;;;69.88;;
5710;SDS011;61291;52.524;13.422;2022-12-18T14:48:14;75.47;;;68.30;;
5710;SDS011;61291;52.524;13.422;2022-12-18T14:50:45;78.03;;;71.10;;
5710;SDS011;61291;52.524;13.422;2022-12-18T14:56:22;65.63;;;58.92;;
5710;SDS011;61291;52.524;13.422;2022-12-18T14:58:51;79.40;;;72.20;;
5710;SDS011;61291;52.524;13.422;2022-12-18T15:01:33;78.37;;;71.13;;
5710;SDS011;61291;52.524;13.422;2022-12-18T15:04:04;71.13;;;64.33;;
5710;SDS011;61291;52.524;13.422;2022-12-18T15:06:47;73.33;;;66.20;;
5710;SDS011;61291;52.524;13.422;2022-12-18T15:09:23;62.77;;;56.67;;
5710;SDS011;61291;52.524;13.422;2022-12-18T15:11:54;77.30;;;70.20;;
5710;SDS011;61291;52.524;13.422;2022-12-18T15:14:28;75.90;;;69.13;;
5710;SDS011;61291;52.524;13.422;2022-12-18T15:17:15;74.00;;;67.33;;
5710;SDS011;61291;52.524;13.422;2022-12-18T15:19:44;71.97;;;64.50;;
5710;SDS011;61291;52.524;13.422;2022-12-18T15:22:15;66.15;;;58.65;;
5710;SDS011;61291;52.524;13.422;2022-12-18T15:24:47;80.03;;;71.83;;
5710;SDS011;61291;52.524;13.422;2022-12-18T15:27:20;79.17;;;72.27;;
5710;SDS011;61291;52.524;13.422;2022-12-18T15:32:35;67.03;;;60.83;;
5710;SDS011;61291;52.524;13.422;2022-12-18T15:37:35;79.23;;;71.80;;
5710;SDS011;61291;52.524;13.422;2022-12-18T15:40:02;80.53;;;72.50;;
5710;SDS011;61291;52.524;13.422;2022-12-18T15:42:28;79.17;;;71.70;;
5710;SDS011;61291;52.524;13.422;2022-12-18T15:45:12;75.57;;;68.87;;
5710;SDS011;61291;52.524;13.422;2022-12-18T15:47:38;72.13;;;64.37;;
5710;SDS011;61291;52.524;13.422;2022-12-18T15:50:04;80.27;;;71.80;;
5710;SDS011;61291;52.524;13.422;2022-12-18T15:52:32;86.07;;;75.37;;
5710;SDS011;61291;52.524;13.422;2022-12-18T15:55:12;76.97;;;68.87;;
5710;SDS011;61291;52.524;13.422;2022-12-18T15:57:57;78.40;;;71.20;;
5710;SDS011;61291;52.524;13.422;2022-12-18T16:00:23;70.83;;;63.50;;